Time;durP1;ratioP1;P1;durP2;ratioP2;P2;SDS_P1;SDS_P2;PMS_P1;PMS_P2;Temp;Humidity;BMP_temperature;BMP_pressure;BME280_temperature;BME280_humidity;BME280_pressure;Samples;Min_cycle;Max_cycle;Signal;HPM_P1;HPM_P2
2024/03/15 00:02:02;;;;;;;24.27;15.10;;;;;;;;;;749428;186;919965;-59
2024/03/15 00:04:27;;;;;;;26.80;17.23;;;;;;;;;;750893;186;919527;-58
2024/03/15 00:06:54;;;;;;;26.07;16.57;;;;;;;;;;750283;186;918974;-58
2024/03/15 00:09:20;;;;;;;22.27;15.27;;;;;;;;;;750343;186;925093;-59
2024/03/15 00:11:46;;;;;;;28.37;16.37;;;;;;;;;;756311;186;919204;-58
2024/03/15 00:14:11;;;;;;;24.53;15.33;;;;;;;;;;751948;186;816141;-59
2024/03/15 00:16:37;;;;;;;23.67;15.97;;;;;;;;;;752685;186;918714;-60
2024/03/15 00:19:03;;;;;;;29.90;16.67;;;;;;;;;;753613;186;923060;-58
2024/03/15 00:21:28;;;;;;;27.40;17.00;;;;;;;;;;745772;184;919442;-58
2024/03/15 00:23:54;;;;;;;30.43;19.73;;;;;;;;;;745704;186;919317;-59
2024/03/15 00:26:21;;;;;;;29.12;19.17;;;;;;;;;;753534;183;918151;-58
2024/03/15 00:28:47;;;;;;;34.30;22.23;;;;;;;;;;750765;186;816442;-58
2024/03/15 00:31:12;;;;;;;30.37;20.83;;;;;;;;;;750728;186;919291;-58
2024/03/15 00:33:38;;;;;;;36.60;20.80;;;;;;;;;;748331;184;918446;-58
2024/03/15 00:36:04;;;;;;;31.50;20.97;;;;;;;;;;754140;186;870636;-58
2024/03/15 00:38:30;;;;;;;30.73;20.67;;;;;;;;;;746844;186;918681;-59
2024/03/15 00:40:56;;;;;;;31.20;18.63;;;;;;;;;;746319;186;919433;-58
2024/03/15 00:43:22;;;;;;;32.37;20.50;;;;;;;;;;753584;186;923025;-58
2024/03/15 00:45:48;;;;;;;29.50;20.17;;;;;;;;;;753137;185;919131;-58
2024/03/15 00:48:15;;;;;;;30.13;18.83;;;;;;;;;;748448;186;918475;-58
2024/03/15 00:50:41;;;;;;;34.10;19.20;;;;;;;;;;752580;186;920366;-58
2024/03/15 00:53:05;;;;;;;32.37;21.53;;;;;;;;;;745483;186;2150658;-58
2024/03/15 00:55:32;;;;;;;26.98;18.77;;;;;;;;;;749645;185;925871;-58
2024/03/15 00:57:57;;;;;;;32.43;19.07;;;;;;;;;;747085;183;913613;-59
2024/03/15 01:00:23;;;;;;;30.13;20.03;;;;;;;;;;752750;183;915160;-59
2024/03/15 01:02:49;;;;;;;37.13;20.92;;;;;;;;;;753620;186;910217;-58
2024/03/15 01:05:15;;;;;;;33.30;19.63;;;;;;;;;;745813;184;815674;-58
2024/03/15 01:07:40;;;;;;;28.63;18.90;;;;;;;;;;754385;186;820093;-60
2024/03/15 01:10:06;;;;;;;33.03;20.17;;;;;;;;;;747339;185;920228;-59
2024/03/15 01:12:34;;;;;;;32.70;18.67;;;;;;;;;;753594;186;813786;-59
2024/03/15 01:14:58;;;;;;;31.40;19.53;;;;;;;;;;757046;186;813184;-59
2024/03/15 01:17:24;;;;;;;35.50;21.47;;;;;;;;;;751834;186;912199;-59
2024/03/15 01:19:50;;;;;;;29.80;18.20;;;;;;;;;;750967;186;917972;-59
2024/03/15 01:22:16;;;;;;;26.70;17.30;;;;;;;;;;747563;183;917209;-59
2024/03/15 01:24:41;;;;;;;28.87;19.17;;;;;;;;;;757066;186;812384;-59
2024/03/15 01:27:07;;;;;;;31.27;19.63;;;;;;;;;;750913;186;918259;-59
2024/03/15 01:29:33;;;;;;;27.50;18.07;;;;;;;;;;750816;186;917938;-59
2024/03/15 01:31:59;;;;;;;29.00;17.50;;;;;;;;;;754860;186;919054;-59
2024/03/15 01:34:25;;;;;;;31.08;19.73;;;;;;;;;;748143;186;919712;-59
2024/03/15 01:36:50;;;;;;;33.17;20.00;;;;;;;;;;748198;186;922035;-58
2024/03/15 01:39:16;;;;;;;32.83;21.13;;;;;;;;;;753514;186;918722;-58
2024/03/15 01:41:43;;;;;;;33.15;21.05;;;;;;;;;;750253;185;919642;-57
2024/03/15 01:44:08;;;;;;;32.07;20.23;;;;;;;;;;749810;186;919455;-57
2024/03/15 01:46:35;;;;;;;33.77;21.47;;;;;;;;;;748962;186;918702;-59
2024/03/15 01:49:00;;;;;;;27.47;19.17;;;;;;;;;;750342;183;920792;-59
2024/03/15 01:51:26;;;;;;;25.83;17.23;;;;;;;;;;751244;186;920236;-59
2024/03/15 01:53:51;;;;;;;24.43;16.30;;;;;;;;;;748308;186;920886;-59
2024/03/15 01:56:17;;;;;;;26.87;17.40;;;;;;;;;;757060;186;816517;-59
2024/03/15 01:58:43;;;;;;;32.53;20.27;;;;;;;;;;751060;184;927830;-59
2024/03/15 02:01:11;;;;;;;30.47;18.83;;;;;;;;;;752079;185;919808;-58
2024/03/15 02:03:35;;;;;;;32.73;19.67;;;;;;;;;;756474;185;919342;-59
2024/03/15 02:06:01;;;;;;;33.23;18.83;;;;;;;;;;750675;185;919387;-58
2024/03/15 02:08:26;;;;;;;24.40;17.77;;;;;;;;;;751951;186;919644;-57
2024/03/15 02:10:52;;;;;;;26.97;17.40;;;;;;;;;;754506;183;915990;-59
2024/03/15 02:13:18;;;;;;;25.80;17.07;;;;;;;;;;749655;186;919800;-57
2024/03/15 02:15:44;;;;;;;29.97;18.33;;;;;;;;;;748992;186;919969;-58
2024/03/15 02:18:10;;;;;;;29.03;18.23;;;;;;;;;;754378;186;816098;-58
2024/03/15 02:20:37;;;;;;;31.70;16.97;;;;;;;;;;754938;186;917652;-57
2024/03/15 02:23:03;;;;;;;25.67;16.20;;;;;;;;;;749792;186;917033;-58
2024/03/15 02:25:27;;;;;;;25.87;16.90;;;;;;;;;;750101;186;912587;-59
2024/03/15 02:27:53;;;;;;;28.33;17.07;;;;;;;;;;755225;186;919794;-59
2024/03/15 02:30:20;;;;;;;30.47;19.33;;;;;;;;;;748713;186;918671;-59
2024/03/15 02:32:45;;;;;;;29.92;18.23;;;;;;;;;;751143;186;922850;-59
2024/03/15 02:35:11;;;;;;;26.10;18.10;;;;;;;;;;755722;186;818001;-58
2024/03/15 02:37:37;;;;;;;28.67;18.13;;;;;;;;;;751350;186;922866;-59
2024/03/15 02:40:03;;;;;;;31.57;18.30;;;;;;;;;;749648;186;924183;-59
2024/03/15 02:42:29;;;;;;;34.03;17.23;;;;;;;;;;748519;186;919484;-59
2024/03/15 02:44:54;;;;;;;24.33;17.33;;;;;;;;;;753209;186;918301;-57
2024/03/15 02:47:25;;;;;;;26.80;15.90;;;;;;;;;;749721;184;919717;-57
2024/03/15 02:49:46;;;;;;;24.90;17.40;;;;;;;;;;749589;186;822630;-59
2024/03/15 02:52:12;;;;;;;27.47;18.80;;;;;;;;;;755725;186;816190;-58
2024/03/15 02:54:39;;;;;;;30.37;17.63;;;;;;;;;;750944;186;918408;-57
2024/03/15 02:57:04;;;;;;;28.77;17.87;;;;;;;;;;748220;184;921581;-57
2024/03/15 02:59:31;;;;;;;30.77;19.90;;;;;;;;;;751914;186;918776;-58
2024/03/15 03:01:56;;;;;;;29.47;19.53;;;;;;;;;;750074;183;817170;-61
2024/03/15 03:04:21;;;;;;;24.30;15.47;;;;;;;;;;753319;186;920125;-58
2024/03/15 03:06:47;;;;;;;29.20;17.67;;;;;;;;;;749234;185;917423;-60
2024/03/15 03:09:13;;;;;;;27.80;16.93;;;;;;;;;;747945;183;919271;-58
2024/03/15 03:11:39;;;;;;;28.90;19.60;;;;;;;;;;750911;183;918578;-57
2024/03/15 03:14:05;;;;;;;31.87;19.07;;;;;;;;;;754309;184;919578;-57
2024/03/15 03:16:33;;;;;;;27.57;18.20;;;;;;;;;;757065;185;920796;-57
2024/03/15 03:18:56;;;;;;;29.47;18.20;;;;;;;;;;751337;185;919556;-61
2024/03/15 03:21:22;;;;;;;32.80;21.80;;;;;;;;;;750787;186;920792;-59
2024/03/15 03:23:48;;;;;;;27.70;18.60;;;;;;;;;;754476;183;922535;-59
2024/03/15 03:26:14;;;;;;;28.70;19.73;;;;;;;;;;751922;183;919479;-58
2024/03/15 03:28:40;;;;;;;27.47;17.80;;;;;;;;;;752494;185;919195;-59
2024/03/15 03:31:06;;;;;;;29.07;18.20;;;;;;;;;;756310;186;822473;-59
2024/03/15 03:33:31;;;;;;;25.80;17.53;;;;;;;;;;751600;185;920977;-58
2024/03/15 03:35:57;;;;;;;26.30;17.00;;;;;;;;;;749400;183;919292;-59
2024/03/15 03:38:23;;;;;;;31.80;19.93;;;;;;;;;;747579;186;918901;-58
2024/03/15 03:40:49;;;;;;;33.63;20.00;;;;;;;;;;755853;183;919963;-58
2024/03/15 03:43:15;;;;;;;28.23;17.90;;;;;;;;;;746750;186;915332;-58
2024/03/15 03:45:43;;;;;;;27.80;19.10;;;;;;;;;;751335;183;877855;-59
2024/03/15 03:48:07;;;;;;;29.07;18.90;;;;;;;;;;758615;183;919383;-59
2024/03/15 03:50:33;;;;;;;24.13;16.60;;;;;;;;;;748494;186;918671;-58
2024/03/15 03:52:58;;;;;;;27.37;18.30;;;;;;;;;;750594;186;919567;-59
2024/03/15 03:55:25;;;;;;;25.60;17.63;;;;;;;;;;754327;186;920046;-59
2024/03/15 03:57:51;;;;;;;27.80;18.03;;;;;;;;;;750871;184;922336;-59
2024/03/15 04:00:16;;;;;;;26.77;15.68;;;;;;;;;;749282;183;920571;-58
2024/03/15 04:02:45;;;;;;;27.20;16.10;;;;;;;;;;748658;184;920790;-58
2024/03/15 04:05:11;;;;;;;27.40;18.40;;;;;;;;;;747147;186;919538;-59
2024/03/15 04:07:37;;;;;;;26.23;17.67;;;;;;;;;;749629;183;816577;-59
2024/03/15 04:10:03;;;;;;;30.80;18.23;;;;;;;;;;749872;186;919065;-59
2024/03/15 04:12:29;;;;;;;34.87;20.20;;;;;;;;;;755050;186;918406;-59
2024/03/15 04:14:54;;;;;;;25.03;17.80;;;;;;;;;;749349;184;830000;-60
2024/03/15 04:17:20;;;;;;;25.33;16.67;;;;;;;;;;747914;186;919906;-62
2024/03/15 04:19:47;;;;;;;23.20;15.93;;;;;;;;;;756020;186;812952;-62
2024/03/15 04:22:13;;;;;;;29.40;19.17;;;;;;;;;;746828;186;917975;-61
2024/03/15 04:24:38;;;;;;;25.83;17.90;;;;;;;;;;757328;183;722358;-62
2024/03/15 04:27:04;;;;;;;26.43;17.60;;;;;;;;;;756683;183;632671;-62
2024/03/15 04:29:30;;;;;;;24.23;17.80;;;;;;;;;;759217;184;633249;-62
2024/03/15 04:31:57;;;;;;;26.80;17.53;;;;;;;;;;749924;186;916766;-61
2024/03/15 04:34:22;;;;;;;27.67;16.50;;;;;;;;;;748666;186;915930;-61
2024/03/15 04:36:48;;;;;;;24.47;16.73;;;;;;;;;;754730;183;915010;-61
2024/03/15 04:39:15;;;;;;;25.83;15.90;;;;;;;;;;749064;186;920748;-62
2024/03/15 04:41:39;;;;;;;24.40;16.43;;;;;;;;;;752314;186;873763;-62
2024/03/15 04:44:06;;;;;;;26.70;17.50;;;;;;;;;;754467;186;814790;-62
2024/03/15 04:46:31;;;;;;;28.53;17.87;;;;;;;;;;746274;186;921193;-62
2024/03/15 04:48:57;;;;;;;31.90;17.10;;;;;;;;;;752398;183;920120;-61
2024/03/15 04:51:23;;;;;;;24.53;16.20;;;;;;;;;;748857;185;918862;-61
2024/03/15 04:53:48;;;;;;;25.87;17.97;;;;;;;;;;756050;186;857620;-61
2024/03/15 04:56:14;;;;;;;30.97;19.30;;;;;;;;;;753200;183;816466;-61
2024/03/15 04:58:41;;;;;;;25.07;16.40;;;;;;;;;;749425;186;864533;-61
2024/03/15 05:01:06;;;;;;;25.83;17.10;;;;;;;;;;752706;186;812113;-61
2024/03/15 05:03:32;;;;;;;25.23;17.20;;;;;;;;;;750786;185;850842;-61
2024/03/15 05:05:58;;;;;;;28.75;17.10;;;;;;;;;;750263;186;1021061;-62
2024/03/15 05:08:23;;;;;;;28.93;17.10;;;;;;;;;;755475;186;869062;-62
2024/03/15 05:10:49;;;;;;;26.43;16.60;;;;;;;;;;750033;184;917672;-63
2024/03/15 05:13:15;;;;;;;32.30;18.23;;;;;;;;;;750181;186;915278;-61
2024/03/15 05:15:42;;;;;;;23.03;16.30;;;;;;;;;;749681;186;888286;-62
2024/03/15 05:18:07;;;;;;;22.70;14.70;;;;;;;;;;749611;186;864523;-61
2024/03/15 05:20:33;;;;;;;25.70;15.53;;;;;;;;;;748052;186;919830;-61
2024/03/15 05:22:59;;;;;;;26.90;17.17;;;;;;;;;;748423;186;919016;-62
2024/03/15 05:25:25;;;;;;;23.60;15.60;;;;;;;;;;755186;186;922027;-60
2024/03/15 05:27:51;;;;;;;23.37;16.10;;;;;;;;;;751597;186;918991;-61
2024/03/15 05:30:18;;;;;;;25.33;16.37;;;;;;;;;;748325;183;918472;-62
2024/03/15 05:32:43;;;;;;;31.13;16.50;;;;;;;;;;754339;186;916821;-63
2024/03/15 05:35:09;;;;;;;26.70;15.57;;;;;;;;;;749993;183;919661;-61
2024/03/15 05:37:34;;;;;;;25.30;15.18;;;;;;;;;;753513;185;816418;-62
2024/03/15 05:40:00;;;;;;;26.55;15.25;;;;;;;;;;760432;183;623313;-62
2024/03/15 05:42:27;;;;;;;24.87;16.63;;;;;;;;;;754772;186;625989;-61
2024/03/15 05:44:52;;;;;;;24.60;16.97;;;;;;;;;;756111;185;621716;-61
2024/03/15 05:47:18;;;;;;;25.77;15.30;;;;;;;;;;755104;186;633585;-61
2024/03/15 05:49:45;;;;;;;28.43;18.20;;;;;;;;;;760426;184;615663;-62
2024/03/15 05:52:10;;;;;;;24.80;16.83;;;;;;;;;;754116;183;816231;-62
2024/03/15 05:54:36;;;;;;;24.40;17.60;;;;;;;;;;753978;183;636987;-62
2024/03/15 05:57:01;;;;;;;32.90;17.43;;;;;;;;;;758908;186;637986;-62
2024/03/15 05:59:27;;;;;;;26.10;16.70;;;;;;;;;;753410;185;631420;-62
2024/03/15 06:01:53;;;;;;;21.50;16.60;;;;;;;;;;755067;186;723707;-62
2024/03/15 06:04:19;;;;;;;26.97;17.83;;;;;;;;;;757606;186;620797;-62
2024/03/15 06:06:46;;;;;;;29.60;19.40;;;;;;;;;;748730;186;922878;-60
2024/03/15 06:09:12;;;;;;;26.63;18.50;;;;;;;;;;750166;183;923032;-62
2024/03/15 06:11:36;;;;;;;36.57;16.10;;;;;;;;;;750142;185;1024240;-61
2024/03/15 06:14:03;;;;;;;29.43;17.30;;;;;;;;;;744677;186;927317;-61
2024/03/15 06:16:28;;;;;;;33.63;18.27;;;;;;;;;;747502;184;1026771;-62
2024/03/15 06:18:54;;;;;;;23.87;16.43;;;;;;;;;;744848;186;817834;-61
2024/03/15 06:21:20;;;;;;;28.33;16.97;;;;;;;;;;754366;183;918753;-63
2024/03/15 06:23:46;;;;;;;27.33;17.53;;;;;;;;;;750670;186;906567;-60
2024/03/15 06:26:11;;;;;;;31.50;18.47;;;;;;;;;;749932;186;919008;-61
2024/03/15 06:28:37;;;;;;;26.80;17.95;;;;;;;;;;756357;186;814992;-62
2024/03/15 06:31:04;;;;;;;31.07;18.97;;;;;;;;;;749439;186;891431;-62
2024/03/15 06:33:33;;;;;;;42.27;19.10;;;;;;;;;;750579;184;906235;-61
2024/03/15 06:35:57;;;;;;;20.73;15.05;;;;;;;;;;754307;186;912159;-62
2024/03/15 06:41:07;;;;;;;26.40;17.80;;;;;;;;;;750365;186;919081;-62
2024/03/15 06:43:35;;;;;;;26.10;17.00;;;;;;;;;;749138;185;919627;-62
2024/03/15 06:45:52;;;;;;;23.20;15.30;;;;;;;;;;746279;186;981539;-61
2024/03/15 06:48:20;;;;;;;25.40;15.80;;;;;;;;;;752233;183;919626;-62
2024/03/15 06:50:48;;;;;;;25.27;16.47;;;;;;;;;;752321;185;919635;-60
2024/03/15 06:53:16;;;;;;;22.50;14.17;;;;;;;;;;751371;185;920495;-61
2024/03/15 06:55:39;;;;;;;24.43;16.13;;;;;;;;;;756628;183;818260;-63
2024/03/15 06:58:06;;;;;;;24.70;15.90;;;;;;;;;;748451;186;920935;-61
2024/03/15 07:00:34;;;;;;;22.50;15.83;;;;;;;;;;749950;186;924362;-61
2024/03/15 07:02:58;;;;;;;28.33;16.13;;;;;;;;;;755944;186;917178;-61
2024/03/15 07:05:25;;;;;;;24.80;15.27;;;;;;;;;;751043;186;915363;-62
2024/03/15 07:07:53;;;;;;;26.60;15.10;;;;;;;;;;749915;183;915583;-61
2024/03/15 07:10:15;;;;;;;29.33;14.83;;;;;;;;;;751483;186;809603;-61
2024/03/15 07:12:41;;;;;;;20.10;14.50;;;;;;;;;;753743;186;918849;-61
2024/03/15 07:15:09;;;;;;;22.50;14.97;;;;;;;;;;753001;186;919129;-62
2024/03/15 07:17:36;;;;;;;23.13;14.80;;;;;;;;;;748871;186;1020996;-62
2024/03/15 07:20:03;;;;;;;25.53;16.53;;;;;;;;;;756400;186;916526;-63
2024/03/15 07:22:27;;;;;;;29.57;16.50;;;;;;;;;;750071;186;920887;-63
2024/03/15 07:24:53;;;;;;;28.37;15.70;;;;;;;;;;749344;186;919183;-61
2024/03/15 07:27:20;;;;;;;26.20;16.30;;;;;;;;;;748802;186;920042;-61
2024/03/15 07:29:45;;;;;;;27.20;16.30;;;;;;;;;;749743;186;921074;-59
2024/03/15 07:32:10;;;;;;;27.50;17.43;;;;;;;;;;748135;183;920311;-59
2024/03/15 07:34:36;;;;;;;24.60;15.80;;;;;;;;;;750209;186;818737;-59
2024/03/15 07:37:04;;;;;;;25.35;16.45;;;;;;;;;;751987;186;916344;-61
2024/03/15 07:39:29;;;;;;;25.20;16.37;;;;;;;;;;749930;186;918379;-61
2024/03/15 07:41:59;;;;;;;20.83;15.60;;;;;;;;;;750442;186;915540;-59
2024/03/15 07:44:23;;;;;;;23.20;15.40;;;;;;;;;;755707;186;817972;-61
2024/03/15 07:46:48;;;;;;;22.33;14.40;;;;;;;;;;753612;186;819043;-59
2024/03/15 07:49:14;;;;;;;22.85;15.57;;;;;;;;;;747751;186;922564;-60
2024/03/15 07:51:40;;;;;;;24.53;15.10;;;;;;;;;;751310;186;920265;-60
2024/03/15 07:54:06;;;;;;;25.13;15.60;;;;;;;;;;751438;183;781079;-59
2024/03/15 07:56:32;;;;;;;20.98;13.52;;;;;;;;;;751003;186;918472;-60
2024/03/15 07:58:57;;;;;;;20.30;13.47;;;;;;;;;;745922;185;919536;-61
2024/03/15 08:01:23;;;;;;;22.27;13.00;;;;;;;;;;758803;185;916934;-59
2024/03/15 08:03:49;;;;;;;20.63;14.90;;;;;;;;;;753196;185;918615;-59
2024/03/15 08:06:15;;;;;;;20.97;14.23;;;;;;;;;;750710;185;915015;-59
2024/03/15 08:08:42;;;;;;;25.27;15.57;;;;;;;;;;757381;185;817167;-61
2024/03/15 08:11:07;;;;;;;23.83;16.37;;;;;;;;;;751391;186;918865;-61
2024/03/15 08:13:32;;;;;;;20.60;14.13;;;;;;;;;;750057;186;918048;-60
2024/03/15 08:15:59;;;;;;;21.07;14.30;;;;;;;;;;750797;186;799230;-62
2024/03/15 08:18:26;;;;;;;24.25;15.48;;;;;;;;;;749520;184;918216;-61
2024/03/15 08:20:51;;;;;;;21.63;15.00;;;;;;;;;;750928;186;811683;-60
2024/03/15 08:23:18;;;;;;;28.77;13.33;;;;;;;;;;747462;186;919523;-61
2024/03/15 08:25:44;;;;;;;21.10;13.40;;;;;;;;;;756011;186;912168;-61
2024/03/15 08:28:13;;;;;;;21.00;12.00;;;;;;;;;;753036;186;857636;-61
2024/03/15 08:30:37;;;;;;;19.50;12.57;;;;;;;;;;751516;186;808363;-61
2024/03/15 08:33:02;;;;;;;17.90;11.90;;;;;;;;;;753738;184;920203;-59
2024/03/15 08:35:27;;;;;;;18.20;13.63;;;;;;;;;;749043;186;910913;-59
2024/03/15 08:37:53;;;;;;;20.10;13.00;;;;;;;;;;751458;186;817948;-61
2024/03/15 08:40:19;;;;;;;19.52;13.50;;;;;;;;;;748815;186;920385;-61
2024/03/15 08:42:45;;;;;;;18.13;12.40;;;;;;;;;;744323;187;879067;-61
2024/03/15 08:45:10;;;;;;;21.37;13.70;;;;;;;;;;750329;186;715090;-61
2024/03/15 08:47:39;;;;;;;17.57;12.80;;;;;;;;;;750464;183;921114;-62
2024/03/15 08:50:03;;;;;;;20.90;12.30;;;;;;;;;;756073;186;767146;-61
2024/03/15 08:52:29;;;;;;;18.50;12.80;;;;;;;;;;752239;186;917306;-60
2024/03/15 08:54:55;;;;;;;20.33;12.85;;;;;;;;;;752067;183;912882;-59
2024/03/15 08:57:22;;;;;;;18.60;11.80;;;;;;;;;;756276;186;920508;-60
2024/03/15 08:59:47;;;;;;;17.77;11.20;;;;;;;;;;750827;186;915348;-59
2024/03/15 09:02:13;;;;;;;19.50;12.65;;;;;;;;;;748138;183;918557;-59
2024/03/15 09:04:39;;;;;;;18.80;12.07;;;;;;;;;;752694;186;919152;-60
2024/03/15 09:07:06;;;;;;;18.77;11.57;;;;;;;;;;749835;186;883460;-59
2024/03/15 09:09:33;;;;;;;16.63;11.40;;;;;;;;;;747974;186;913451;-60
2024/03/15 09:11:58;;;;;;;16.17;9.87;;;;;;;;;;751451;183;918277;-59
2024/03/15 09:14:24;;;;;;;18.60;11.23;;;;;;;;;;756969;185;925343;-59
2024/03/15 09:16:50;;;;;;;14.60;10.80;;;;;;;;;;752741;183;896431;-60
2024/03/15 09:19:17;;;;;;;17.53;10.60;;;;;;;;;;746795;186;920902;-63
2024/03/15 09:21:43;;;;;;;15.47;10.57;;;;;;;;;;755840;186;920074;-59
2024/03/15 09:24:08;;;;;;;15.50;9.70;;;;;;;;;;753165;186;818783;-60
2024/03/15 09:26:33;;;;;;;17.17;10.93;;;;;;;;;;752427;185;919588;-60
2024/03/15 09:29:00;;;;;;;14.05;10.15;;;;;;;;;;753734;186;916023;-60
2024/03/15 09:31:28;;;;;;;12.43;9.17;;;;;;;;;;745124;186;914434;-60
2024/03/15 09:33:54;;;;;;;15.37;10.00;;;;;;;;;;752135;186;921420;-60
2024/03/15 09:36:18;;;;;;;12.07;8.47;;;;;;;;;;750287;186;926844;-60
2024/03/15 09:38:46;;;;;;;14.60;8.87;;;;;;;;;;753957;186;914878;-60
2024/03/15 09:41:12;;;;;;;13.13;8.87;;;;;;;;;;751891;183;848029;-60
2024/03/15 09:43:39;;;;;;;12.90;9.73;;;;;;;;;;753704;186;814423;-60
2024/03/15 09:46:04;;;;;;;16.62;10.07;;;;;;;;;;754338;186;919968;-60
2024/03/15 09:48:29;;;;;;;13.90;8.50;;;;;;;;;;751689;183;918218;-60
2024/03/15 09:50:59;;;;;;;11.43;8.53;;;;;;;;;;749454;186;921796;-61
2024/03/15 09:53:21;;;;;;;12.43;7.53;;;;;;;;;;752783;186;919913;-60
2024/03/15 09:55:52;;;;;;;12.00;7.90;;;;;;;;;;750952;186;890016;-60
2024/03/15 09:58:13;;;;;;;10.97;7.33;;;;;;;;;;748103;186;914221;-60
2024/03/15 10:00:41;;;;;;;9.23;6.50;;;;;;;;;;748406;186;916812;-60
2024/03/15 10:03:05;;;;;;;8.63;7.40;;;;;;;;;;755358;186;921164;-62
2024/03/15 10:05:31;;;;;;;13.93;8.03;;;;;;;;;;751068;186;919536;-62
2024/03/15 10:07:56;;;;;;;13.02;8.20;;;;;;;;;;750773;183;917926;-63
2024/03/15 10:10:23;;;;;;;12.30;8.23;;;;;;;;;;754091;186;894626;-62
2024/03/15 10:12:49;;;;;;;13.20;7.10;;;;;;;;;;751067;186;888840;-61
2024/03/15 10:15:14;;;;;;;11.23;7.60;;;;;;;;;;749168;183;918459;-60
2024/03/15 10:17:40;;;;;;;10.85;7.37;;;;;;;;;;753770;186;816977;-62
2024/03/15 10:20:11;;;;;;;9.90;6.60;;;;;;;;;;752464;186;817037;-62
2024/03/15 10:22:36;;;;;;;12.02;7.78;;;;;;;;;;749422;186;914165;-61
2024/03/15 10:25:02;;;;;;;9.37;7.80;;;;;;;;;;750582;186;919676;-61
2024/03/15 10:27:27;;;;;;;11.10;7.70;;;;;;;;;;755940;185;918071;-62
2024/03/15 10:29:55;;;;;;;12.40;8.57;;;;;;;;;;751371;183;919217;-61
2024/03/15 10:32:19;;;;;;;11.13;7.00;;;;;;;;;;749929;184;916819;-62
2024/03/15 10:34:45;;;;;;;10.73;7.10;;;;;;;;;;750376;184;912151;-62
2024/03/15 10:37:12;;;;;;;11.40;7.80;;;;;;;;;;753764;186;817867;-61
2024/03/15 10:39:37;;;;;;;9.20;6.60;;;;;;;;;;752972;186;920581;-62
2024/03/15 10:42:04;;;;;;;12.00;7.50;;;;;;;;;;752868;186;816414;-62
2024/03/15 10:44:29;;;;;;;11.23;7.47;;;;;;;;;;751403;183;918591;-61
2024/03/15 10:46:54;;;;;;;12.40;7.10;;;;;;;;;;749450;186;916968;-60
2024/03/15 10:49:21;;;;;;;11.40;6.93;;;;;;;;;;749791;186;918944;-61
2024/03/15 10:51:46;;;;;;;11.50;7.80;;;;;;;;;;754725;186;912663;-60
2024/03/15 10:54:12;;;;;;;11.97;7.87;;;;;;;;;;752833;184;817781;-60
2024/03/15 10:56:38;;;;;;;14.45;8.68;;;;;;;;;;749407;185;818378;-61
2024/03/15 10:59:04;;;;;;;9.57;6.43;;;;;;;;;;754255;186;921120;-60
2024/03/15 11:01:30;;;;;;;11.77;8.00;;;;;;;;;;746382;184;919790;-61
2024/03/15 11:03:55;;;;;;;10.83;7.57;;;;;;;;;;748711;184;920223;-61
2024/03/15 11:06:21;;;;;;;10.53;7.47;;;;;;;;;;752747;186;826792;-60
2024/03/15 11:08:47;;;;;;;11.87;9.20;;;;;;;;;;748526;184;912109;-61
2024/03/15 11:11:13;;;;;;;11.67;8.33;;;;;;;;;;744904;186;1021755;-61
2024/03/15 11:13:39;;;;;;;12.93;9.57;;;;;;;;;;748415;186;917544;-61
2024/03/15 11:16:10;;;;;;;12.07;9.30;;;;;;;;;;756362;183;921201;-61
2024/03/15 11:18:37;;;;;;;12.67;9.50;;;;;;;;;;746766;186;919440;-60
2024/03/15 11:21:03;;;;;;;10.47;8.30;;;;;;;;;;749120;186;919797;-61
2024/03/15 11:23:28;;;;;;;11.17;9.13;;;;;;;;;;753598;186;919162;-62
2024/03/15 11:25:55;;;;;;;15.97;9.87;;;;;;;;;;745713;186;913414;-62
2024/03/15 11:28:21;;;;;;;13.93;9.63;;;;;;;;;;752414;186;919150;-62
2024/03/15 11:30:47;;;;;;;14.00;9.20;;;;;;;;;;749384;186;922124;-62
2024/03/15 11:33:12;;;;;;;14.20;9.47;;;;;;;;;;753671;183;920318;-62
2024/03/15 11:35:40;;;;;;;11.20;8.47;;;;;;;;;;750888;186;856192;-61
2024/03/15 11:38:04;;;;;;;13.53;9.53;;;;;;;;;;755059;185;627621;-60
2024/03/15 11:40:30;;;;;;;11.33;8.07;;;;;;;;;;754780;184;919274;-61
2024/03/15 11:42:56;;;;;;;14.53;8.97;;;;;;;;;;757111;185;816600;-60
2024/03/15 11:45:22;;;;;;;14.80;9.20;;;;;;;;;;749797;186;882149;-61
2024/03/15 11:47:47;;;;;;;12.93;9.53;;;;;;;;;;757100;183;817500;-60
2024/03/15 11:50:13;;;;;;;14.43;10.27;;;;;;;;;;751667;183;919537;-60
2024/03/15 11:52:39;;;;;;;12.47;9.70;;;;;;;;;;750168;183;817735;-61
2024/03/15 11:55:06;;;;;;;11.80;8.60;;;;;;;;;;751757;184;919241;-60
2024/03/15 11:57:34;;;;;;;13.10;9.00;;;;;;;;;;754653;186;871536;-60
2024/03/15 11:59:57;;;;;;;14.30;8.90;;;;;;;;;;750801;186;921934;-60
2024/03/15 12:02:23;;;;;;;13.83;8.70;;;;;;;;;;750873;186;918894;-60
2024/03/15 12:04:49;;;;;;;14.53;9.27;;;;;;;;;;754498;186;918447;-62
2024/03/15 12:07:14;;;;;;;10.93;7.10;;;;;;;;;;750719;186;919473;-61
2024/03/15 12:09:42;;;;;;;11.12;8.02;;;;;;;;;;749845;186;1019849;-60
2024/03/15 12:12:07;;;;;;;8.70;5.50;;;;;;;;;;754420;186;917074;-60
2024/03/15 12:14:33;;;;;;;6.60;4.70;;;;;;;;;;744354;184;919406;-60
2024/03/15 12:16:59;;;;;;;9.87;7.10;;;;;;;;;;751125;186;818365;-60
2024/03/15 12:19:25;;;;;;;8.33;6.13;;;;;;;;;;746962;184;919345;-60
2024/03/15 12:21:50;;;;;;;9.63;6.80;;;;;;;;;;739622;189;916625;-60
2024/03/15 12:24:16;;;;;;;10.55;6.82;;;;;;;;;;745832;186;926120;-61
2024/03/15 12:26:42;;;;;;;8.87;6.30;;;;;;;;;;747331;186;911302;-61
2024/03/15 12:29:08;;;;;;;10.43;6.97;;;;;;;;;;755021;186;876061;-60
2024/03/15 12:31:40;;;;;;;10.47;7.00;;;;;;;;;;750455;186;859078;-61
2024/03/15 12:34:01;;;;;;;9.93;6.70;;;;;;;;;;753582;183;627516;-61
2024/03/15 12:36:26;;;;;;;10.67;6.73;;;;;;;;;;755627;183;768152;-61
2024/03/15 12:38:52;;;;;;;7.13;4.30;;;;;;;;;;750466;186;920340;-62
2024/03/15 12:41:17;;;;;;;5.97;3.23;;;;;;;;;;750103;186;816667;-61
2024/03/15 12:43:43;;;;;;;5.95;3.80;;;;;;;;;;753115;186;876727;-61
2024/03/15 12:46:09;;;;;;;7.03;4.33;;;;;;;;;;755743;185;818369;-61
2024/03/15 12:48:35;;;;;;;5.60;4.40;;;;;;;;;;753284;185;821017;-60
2024/03/15 12:51:01;;;;;;;9.17;6.40;;;;;;;;;;751266;185;913638;-61
2024/03/15 12:53:26;;;;;;;9.97;7.10;;;;;;;;;;757400;185;847621;-60
2024/03/15 12:55:52;;;;;;;12.97;7.60;;;;;;;;;;752107;186;921383;-61
2024/03/15 12:58:18;;;;;;;9.80;6.23;;;;;;;;;;749984;186;919633;-60
2024/03/15 13:00:44;;;;;;;7.60;5.83;;;;;;;;;;754879;186;919273;-60
2024/03/15 13:03:10;;;;;;;8.23;6.23;;;;;;;;;;750501;183;921641;-60
2024/03/15 13:05:36;;;;;;;5.73;4.30;;;;;;;;;;749841;186;933104;-62
2024/03/15 13:08:02;;;;;;;6.00;4.40;;;;;;;;;;755125;186;918944;-62
2024/03/15 13:10:28;;;;;;;10.23;6.57;;;;;;;;;;751196;186;921848;-63
2024/03/15 13:12:55;;;;;;;10.50;7.10;;;;;;;;;;750723;183;855142;-63
2024/03/15 13:15:21;;;;;;;8.50;5.90;;;;;;;;;;750047;186;916206;-60
2024/03/15 13:17:51;;;;;;;7.57;5.30;;;;;;;;;;754254;186;920680;-61
2024/03/15 13:20:16;;;;;;;6.30;3.87;;;;;;;;;;750341;185;920451;-60
2024/03/15 13:22:42;;;;;;;9.17;6.00;;;;;;;;;;748440;185;916705;-60
2024/03/15 13:25:09;;;;;;;9.93;6.43;;;;;;;;;;754817;184;916483;-60
2024/03/15 13:27:34;;;;;;;11.53;6.00;;;;;;;;;;749440;185;931202;-62
2024/03/15 13:30:00;;;;;;;9.13;5.63;;;;;;;;;;748799;186;915248;-61
2024/03/15 13:32:26;;;;;;;11.00;6.17;;;;;;;;;;749707;186;914591;-60
2024/03/15 13:34:51;;;;;;;8.40;5.13;;;;;;;;;;748103;186;919488;-61
2024/03/15 13:37:17;;;;;;;6.27;5.00;;;;;;;;;;750243;186;919369;-61
2024/03/15 13:39:43;;;;;;;8.50;5.80;;;;;;;;;;752070;183;922654;-61
2024/03/15 13:42:09;;;;;;;9.93;4.60;;;;;;;;;;759792;186;919937;-61
2024/03/15 13:44:35;;;;;;;6.30;4.10;;;;;;;;;;752047;186;919615;-63
2024/03/15 13:47:01;;;;;;;6.50;5.50;;;;;;;;;;749188;186;878971;-59
2024/03/15 13:49:26;;;;;;;6.90;5.00;;;;;;;;;;756784;186;917923;-62
2024/03/15 13:51:53;;;;;;;7.40;5.17;;;;;;;;;;751916;186;918211;-59
2024/03/15 13:54:18;;;;;;;7.20;4.73;;;;;;;;;;749821;185;819247;-59
2024/03/15 13:56:45;;;;;;;7.50;5.07;;;;;;;;;;750305;186;917599;-60
2024/03/15 13:59:10;;;;;;;7.13;5.60;;;;;;;;;;754480;185;818296;-61
2024/03/15 14:01:38;;;;;;;9.07;5.50;;;;;;;;;;751914;185;919283;-59
2024/03/15 14:04:02;;;;;;;7.93;5.07;;;;;;;;;;747024;186;921687;-60